createdAt,value
2019-04-03T00:01:08.338Z,67.90
2019-04-03T00:03:36.502Z,69.10
2019-04-03T00:06:05.512Z,68.90
2019-04-03T00:08:36.142Z,68.30
2019-04-03T00:11:22.670Z,68.40
2019-04-03T00:13:50.779Z,69.80
2019-04-03T00:16:18.836Z,68.30
2019-04-03T00:18:47.913Z,68.40
2019-04-03T00:21:16.119Z,68.40
2019-04-03T00:23:44.124Z,69.00
2019-04-03T00:26:12.196Z,68.20
2019-04-03T00:28:40.244Z,67.50
2019-04-03T00:31:08.349Z,67.60
2019-04-03T00:33:36.489Z,67.70
2019-04-03T00:36:04.737Z,66.70
2019-04-03T00:38:32.762Z,66.40
2019-04-03T00:41:00.787Z,66.70
2019-04-03T00:43:28.853Z,67.50
2019-04-03T00:45:56.875Z,66.30
2019-04-03T00:48:25.791Z,66.60
2019-04-03T00:50:56.372Z,66.60
2019-04-03T00:53:24.347Z,66.70
2019-04-03T00:55:52.578Z,66.90
2019-04-03T00:58:20.724Z,66.40
2019-04-03T01:00:48.786Z,66.20
2019-04-03T01:03:16.816Z,66.10
2019-04-03T01:05:45.003Z,65.90
2019-04-03T01:08:13.037Z,66.20
2019-04-03T01:10:41.072Z,66.50
2019-04-03T01:13:09.118Z,66.00
2019-04-03T01:15:37.154Z,65.80
2019-04-03T01:18:05.505Z,66.40
2019-04-03T01:20:35.974Z,67.30
2019-04-03T01:23:03.479Z,67.00
2019-04-03T01:25:31.681Z,67.80
2019-04-03T01:27:59.731Z,67.90
2019-04-03T01:30:27.771Z,67.70
2019-04-03T01:32:55.915Z,67.60
2019-04-03T01:35:23.976Z,67.80
2019-04-03T01:37:52.027Z,68.40
2019-04-03T01:40:20.846Z,68.20
2019-04-03T01:42:49.186Z,67.40
2019-04-03T01:45:17.203Z,67.00
2019-04-03T01:47:45.386Z,67.20
2019-04-03T01:50:13.541Z,67.10
2019-04-03T01:52:41.554Z,67.10
2019-04-03T01:55:09.671Z,66.90
2019-04-03T01:57:37.882Z,66.80
2019-04-03T02:00:07.448Z,66.70
2019-04-03T02:02:36.875Z,67.10
2019-04-03T02:05:05.753Z,66.80
2019-04-03T02:07:34.055Z,66.80
2019-04-03T02:10:02.090Z,67.10
2019-04-03T02:12:30.100Z,66.60
2019-04-03T02:14:58.147Z,65.90
2019-04-03T02:17:26.649Z,65.20
2019-04-03T02:19:56.612Z,64.80
2019-04-03T02:22:24.538Z,65.50
2019-04-03T02:24:52.567Z,65.80
2019-04-03T02:27:20.607Z,65.20
2019-04-03T02:29:48.635Z,65.90
2019-04-03T02:32:16.688Z,65.10
2019-04-03T02:34:44.768Z,64.70
2019-04-03T02:37:16.308Z,64.70
2019-04-03T02:39:42.624Z,64.40
2019-04-03T02:42:10.642Z,64.90
2019-04-03T02:44:38.652Z,64.50
2019-04-03T02:47:06.820Z,64.70
2019-04-03T02:49:35.119Z,64.50
2019-04-03T02:52:03.439Z,64.30
2019-04-03T02:54:34.627Z,64.30
2019-04-03T02:57:01.429Z,64.70
2019-04-03T02:59:29.743Z,64.70
2019-04-03T03:01:57.835Z,64.40
2019-04-03T03:04:26.143Z,64.00
2019-04-03T03:06:54.413Z,63.70
2019-04-03T03:09:22.439Z,63.90
2019-04-03T03:11:50.480Z,63.80
2019-04-03T03:14:18.682Z,64.60
2019-04-03T03:16:49.305Z,63.40
2019-04-03T03:19:16.650Z,63.80
2019-04-03T03:21:45.587Z,63.80
2019-04-03T03:24:14.002Z,63.80
2019-04-03T03:26:42.020Z,63.70
2019-04-03T03:29:17.665Z,63.30
2019-04-03T03:32:01.582Z,63.10
2019-04-03T03:34:10.254Z,63.20
2019-04-03T03:36:39.153Z,63.60
2019-04-03T03:39:10.389Z,62.90
2019-04-03T03:41:37.205Z,63.30
2019-04-03T03:44:05.364Z,63.30
2019-04-03T03:46:33.738Z,63.70
2019-04-03T03:49:02.672Z,63.90
2019-04-03T03:51:31.652Z,63.90
2019-04-03T03:54:00.202Z,64.70
2019-04-03T03:56:31.586Z,64.90
2019-04-03T03:58:58.300Z,64.80
2019-04-03T04:01:30.260Z,64.50
2019-04-03T04:03:57.916Z,64.10
2019-04-03T04:06:29.122Z,63.80
2019-04-03T04:08:55.909Z,64.10
2019-04-03T04:11:24.148Z,63.70
2019-04-03T04:13:52.372Z,63.70
2019-04-03T04:16:20.754Z,63.90
2019-04-03T04:18:49.201Z,63.40
2019-04-03T04:21:17.237Z,63.60
2019-04-03T04:23:45.270Z,63.60
2019-04-03T04:26:13.530Z,63.20
2019-04-03T04:28:42.047Z,63.30
2019-04-03T04:31:12.277Z,63.20
2019-04-03T04:33:39.860Z,63.20
2019-04-03T04:36:08.174Z,62.90
2019-04-03T04:38:36.591Z,63.00
2019-04-03T04:41:04.994Z,62.80
2019-04-03T04:43:33.233Z,62.90
2019-04-03T04:46:01.271Z,63.00
2019-04-03T04:48:29.292Z,62.70
2019-04-03T04:50:57.358Z,62.50
2019-04-03T04:53:25.376Z,62.40
2019-04-03T04:55:53.393Z,62.40
2019-04-03T04:58:21.745Z,62.30
2019-04-03T05:00:52.891Z,62.80
2019-04-03T05:03:19.753Z,62.10
2019-04-03T05:05:49.332Z,62.70
2019-04-03T05:08:17.370Z,62.10
2019-04-03T05:10:45.400Z,62.00
2019-04-03T05:13:15.263Z,62.10
2019-04-03T05:15:43.218Z,61.90
2019-04-03T05:18:11.238Z,61.60
2019-04-03T05:20:39.295Z,61.70
2019-04-03T05:23:07.344Z,61.90
2019-04-03T05:25:35.389Z,61.50
2019-04-03T05:28:04.510Z,61.40
2019-04-03T05:30:32.955Z,61.70
2019-04-03T05:33:01.000Z,61.60
2019-04-03T05:35:29.064Z,61.80
2019-04-03T05:37:57.100Z,61.30
2019-04-03T05:40:26.166Z,62.10
2019-04-03T05:42:54.960Z,61.40
2019-04-03T05:45:23.036Z,61.40
2019-04-03T05:47:51.100Z,62.50
2019-04-03T05:50:19.115Z,62.50
2019-04-03T05:52:47.149Z,62.20
2019-04-03T05:55:15.201Z,62.50
2019-04-03T05:57:45.722Z,62.80
2019-04-03T06:00:13.086Z,63.00
2019-04-03T06:02:41.160Z,63.10
2019-04-03T06:05:11.465Z,63.30
2019-04-03T06:07:38.970Z,63.50
2019-04-03T06:10:07.197Z,62.90
2019-04-03T06:12:37.233Z,62.50
2019-04-03T06:15:05.154Z,62.20
2019-04-03T06:17:33.194Z,62.30
2019-04-03T06:20:01.497Z,62.40
2019-04-03T06:22:29.551Z,61.00
2019-04-03T06:24:57.583Z,60.30
2019-04-03T06:27:27.552Z,60.00
2019-04-03T06:29:55.640Z,59.90
2019-04-03T06:32:24.938Z,61.30
2019-04-03T06:34:53.211Z,60.00
2019-04-03T06:37:22.255Z,59.50
2019-04-03T06:39:51.041Z,59.40
2019-04-03T06:42:19.120Z,59.20
2019-04-03T06:44:47.163Z,59.00
2019-04-03T06:47:15.209Z,58.70
2019-04-03T06:49:43.488Z,58.80
2019-04-03T06:52:11.529Z,58.60
2019-04-03T06:54:39.541Z,58.60
2019-04-03T06:57:07.610Z,58.80
2019-04-03T06:59:35.899Z,58.50
2019-04-03T07:02:03.963Z,58.30
2019-04-03T07:04:32.021Z,58.30
2019-04-03T07:07:00.094Z,57.90
2019-04-03T07:09:35.147Z,57.80
2019-04-03T07:11:57.930Z,57.80
2019-04-03T07:14:26.904Z,57.50
2019-04-03T07:16:55.637Z,58.70
2019-04-03T07:19:23.745Z,59.10
2019-04-03T07:21:53.034Z,59.80
2019-04-03T07:24:21.512Z,60.10
2019-04-03T07:26:49.537Z,60.10
2019-04-03T07:29:17.852Z,60.50
2019-04-03T07:31:45.991Z,60.30
2019-04-03T07:34:14.159Z,60.40
2019-04-03T07:36:44.666Z,60.70
2019-04-03T07:39:12.300Z,60.40
2019-04-03T07:41:41.292Z,60.90
2019-04-03T07:44:09.993Z,60.90
2019-04-03T07:46:38.000Z,60.60
2019-04-03T07:49:06.773Z,60.80
2019-04-03T07:51:36.169Z,61.00
2019-04-03T07:54:04.921Z,61.00
2019-04-03T07:56:32.983Z,61.00
2019-04-03T07:59:02.992Z,61.00
2019-04-03T08:01:31.160Z,61.00
2019-04-03T08:04:00.256Z,61.30
2019-04-03T08:06:28.270Z,61.50
2019-04-03T08:09:07.673Z,61.50
2019-04-03T08:11:26.847Z,61.00
2019-04-03T08:13:54.940Z,61.10
2019-04-03T08:16:23.012Z,61.20
2019-04-03T08:18:51.750Z,61.30
2019-04-03T08:21:20.678Z,61.20
2019-04-03T08:23:48.757Z,61.50
2019-04-03T08:26:19.195Z,61.80
2019-04-03T08:28:46.785Z,62.00
2019-04-03T08:31:15.768Z,61.30
2019-04-03T08:33:44.046Z,62.70
2019-04-03T08:36:23.363Z,60.50
2019-04-03T08:38:44.007Z,60.20
2019-04-03T08:41:12.073Z,60.00
2019-04-03T08:43:40.500Z,60.60
2019-04-03T08:46:10.551Z,59.80
2019-04-03T08:48:38.481Z,59.60
2019-04-03T08:51:06.799Z,59.50
2019-04-03T08:53:35.043Z,58.60
2019-04-03T08:56:03.061Z,59.10
2019-04-03T08:58:31.109Z,58.80
2019-04-03T09:00:59.368Z,58.10
2019-04-03T09:03:27.558Z,59.00
2019-04-03T09:05:55.913Z,58.70
2019-04-03T09:08:26.092Z,58.20
2019-04-03T09:10:54.125Z,58.50
2019-04-03T09:13:23.975Z,58.50
2019-04-03T09:15:52.195Z,57.90
2019-04-03T09:18:20.290Z,57.50
2019-04-03T09:20:48.308Z,57.80
2019-04-03T09:23:16.332Z,57.40
2019-04-03T09:25:44.362Z,57.80
2019-04-03T09:28:12.647Z,58.30
2019-04-03T09:30:40.693Z,58.10
2019-04-03T09:33:09.041Z,58.30
2019-04-03T09:35:37.140Z,58.20
2019-04-03T09:38:05.392Z,60.90
2019-04-03T09:40:34.969Z,63.10
2019-04-03T09:43:03.017Z,62.30
2019-04-03T09:45:31.342Z,62.50
2019-04-03T09:47:59.728Z,61.80
2019-04-03T09:50:28.031Z,63.20
2019-04-03T09:52:56.141Z,63.80
2019-04-03T09:55:24.417Z,63.90
2019-04-03T09:57:53.317Z,65.00
2019-04-03T10:00:21.622Z,63.30
2019-04-03T10:02:51.569Z,62.90
2019-04-03T10:05:19.473Z,62.80
2019-04-03T10:07:47.513Z,63.00
2019-04-03T10:10:16.558Z,62.80
2019-04-03T10:12:47.971Z,62.50
2019-04-03T10:15:17.957Z,62.70
2019-04-03T10:17:44.658Z,62.00
2019-04-03T10:20:12.667Z,60.80
2019-04-03T10:22:40.681Z,60.40
2019-04-03T10:25:08.800Z,59.30
2019-04-03T10:27:36.985Z,61.80
2019-04-03T10:30:05.666Z,62.20
2019-04-03T10:32:33.859Z,61.80
2019-04-03T10:35:02.360Z,61.50
2019-04-03T10:37:30.456Z,61.60
2019-04-03T10:39:58.487Z,61.60
2019-04-03T10:42:26.513Z,61.10
2019-04-03T10:44:54.587Z,61.30
2019-04-03T10:47:25.308Z,61.30
2019-04-03T10:49:52.627Z,61.60
2019-04-03T10:52:20.700Z,61.00
2019-04-03T10:54:48.754Z,61.50
2019-04-03T10:57:17.025Z,61.20
2019-04-03T10:59:45.105Z,61.20
2019-04-03T11:02:13.146Z,61.30
2019-04-03T11:04:41.197Z,61.60
2019-04-03T11:07:09.319Z,61.20
2019-04-03T11:09:37.356Z,60.80
2019-04-03T11:12:05.416Z,60.60
2019-04-03T11:14:33.999Z,60.60
2019-04-03T11:17:02.629Z,60.60
2019-04-03T11:19:31.133Z,60.30
2019-04-03T11:21:59.236Z,60.70
2019-04-03T11:24:27.715Z,60.60
2019-04-03T11:26:55.839Z,60.70
2019-04-03T11:29:23.962Z,60.10
2019-04-03T11:31:52.236Z,60.00
2019-04-03T11:34:20.345Z,60.40
2019-04-03T11:36:48.467Z,60.30
2019-04-03T11:39:16.878Z,60.40
2019-04-03T11:41:44.946Z,60.00
2019-04-03T11:44:13.028Z,60.70
2019-04-03T11:46:41.125Z,60.60
2019-04-03T11:49:11.029Z,59.50
2019-04-03T11:51:39.139Z,59.10
2019-04-03T11:54:08.451Z,58.00
2019-04-03T11:56:37.055Z,57.40
2019-04-03T11:59:05.257Z,57.60
2019-04-03T12:01:33.322Z,57.20
2019-04-03T12:04:01.629Z,58.40
2019-04-03T12:06:29.719Z,58.70
2019-04-03T12:09:00.004Z,58.90
2019-04-03T12:11:27.680Z,58.50
2019-04-03T12:13:56.185Z,57.20
2019-04-03T12:16:25.894Z,57.60
2019-04-03T12:18:54.348Z,57.20
2019-04-03T12:21:22.459Z,57.10
2019-04-03T12:23:50.747Z,56.50
2019-04-03T12:26:20.765Z,57.10
2019-04-03T12:28:50.014Z,57.20
2019-04-03T12:31:18.267Z,56.90
2019-04-03T12:33:56.460Z,56.70
2019-04-03T12:36:17.136Z,57.70
2019-04-03T12:38:45.484Z,59.30
2019-04-03T12:41:13.592Z,60.00
2019-04-03T12:43:41.772Z,60.10
2019-04-03T12:46:09.932Z,59.50
2019-04-03T12:48:41.106Z,59.30
2019-04-03T12:51:15.535Z,59.00
2019-04-03T12:53:43.535Z,58.80
2019-04-03T12:56:11.906Z,58.90
2019-04-03T12:58:40.051Z,58.70
2019-04-03T13:01:10.714Z,58.60
2019-04-03T13:03:37.979Z,58.60
2019-04-03T13:06:07.357Z,58.70
2019-04-03T13:08:36.296Z,58.50
2019-04-03T13:11:04.383Z,58.10
2019-04-03T13:13:32.612Z,58.30
2019-04-03T13:16:00.707Z,57.40
2019-04-03T13:18:28.851Z,56.90
2019-04-03T13:20:56.906Z,55.90
2019-04-03T13:23:25.936Z,56.30
2019-04-03T13:25:54.451Z,56.90
2019-04-03T13:28:22.711Z,56.20
2019-04-03T13:30:50.782Z,55.80
2019-04-03T13:33:19.311Z,55.20
2019-04-03T13:35:48.988Z,55.90
2019-04-03T13:38:17.847Z,55.90
2019-04-03T13:40:46.085Z,55.20
2019-04-03T13:43:14.325Z,54.50
2019-04-03T13:45:42.403Z,55.20
2019-04-03T13:48:13.401Z,55.40
2019-04-03T13:50:40.344Z,55.60
2019-04-03T13:53:08.426Z,54.70
2019-04-03T13:55:39.461Z,54.40
2019-04-03T13:58:06.434Z,54.30
2019-04-03T14:00:34.943Z,54.30
2019-04-03T14:03:03.749Z,54.00
2019-04-03T14:05:33.271Z,54.60
2019-04-03T14:08:01.968Z,54.10
2019-04-03T14:10:30.029Z,54.00
2019-04-03T14:12:58.130Z,53.90
2019-04-03T14:15:26.894Z,53.70
2019-04-03T14:17:58.911Z,54.40
2019-04-03T14:20:25.879Z,54.50
2019-04-03T14:22:54.301Z,54.30
2019-04-03T14:25:23.843Z,54.60
2019-04-03T14:27:55.149Z,54.70
2019-04-03T14:30:23.388Z,54.80
2019-04-03T14:32:53.137Z,55.10
2019-04-03T14:35:45.469Z,55.00
2019-04-03T14:37:51.074Z,55.20
2019-04-03T14:40:19.187Z,55.20
2019-04-03T14:42:47.714Z,55.30
2019-04-03T14:45:15.999Z,55.70
2019-04-03T14:47:44.150Z,55.90
2019-04-03T14:50:12.382Z,55.90
2019-04-03T14:52:40.525Z,56.10
2019-04-03T14:55:19.808Z,55.40
2019-04-03T14:57:38.476Z,55.60
2019-04-03T15:00:23.463Z,55.70
2019-04-03T15:02:37.000Z,56.00
2019-04-03T15:05:07.432Z,56.10
2019-04-03T15:07:35.325Z,56.10
2019-04-03T15:10:03.524Z,55.60
2019-04-03T15:12:31.641Z,55.70
2019-04-03T15:15:00.322Z,55.30
2019-04-03T15:17:28.686Z,55.30
2019-04-03T15:19:57.237Z,55.70
2019-04-03T15:22:25.768Z,55.80
2019-04-03T15:24:53.865Z,55.90
2019-04-03T15:27:22.422Z,55.70
2019-04-03T15:29:50.826Z,55.50
2019-04-03T15:32:20.039Z,55.40
2019-04-03T15:34:50.633Z,55.00
2019-04-03T15:37:18.600Z,55.30
2019-04-03T15:39:49.048Z,55.30
2019-04-03T15:42:16.582Z,55.00
2019-04-03T15:44:44.917Z,55.00
2019-04-03T15:47:13.355Z,54.90
2019-04-03T15:49:43.539Z,55.00
2019-04-03T15:52:12.246Z,54.70
2019-04-03T15:54:40.969Z,54.70
2019-04-03T15:57:09.103Z,54.70
2019-04-03T15:59:37.522Z,54.50
2019-04-03T16:02:06.118Z,54.50
2019-04-03T16:04:34.656Z,54.60
2019-04-03T16:07:02.885Z,54.70
2019-04-03T16:09:31.150Z,54.90
2019-04-03T16:12:00.813Z,54.60
2019-04-03T16:14:29.158Z,54.80
2019-04-03T16:16:57.329Z,55.10
2019-04-03T16:19:27.115Z,55.30
2019-04-03T16:21:57.360Z,55.30
2019-04-03T16:24:25.058Z,55.20
2019-04-03T16:26:56.190Z,55.40
2019-04-03T16:29:23.087Z,55.40
2019-04-03T16:31:54.584Z,55.30
2019-04-03T16:34:21.443Z,55.30
2019-04-03T16:36:50.733Z,55.60
2019-04-03T16:39:19.220Z,55.50
2019-04-03T16:41:47.360Z,55.70
2019-04-03T16:44:15.458Z,55.70
2019-04-03T16:46:43.540Z,55.80
2019-04-03T16:49:11.654Z,56.40
2019-04-03T16:51:40.279Z,56.50
2019-04-03T16:54:11.876Z,56.50
2019-04-03T16:56:39.476Z,56.80
2019-04-03T16:59:08.121Z,57.10
2019-04-03T17:01:36.722Z,57.20
2019-04-03T17:04:05.268Z,57.20
2019-04-03T17:06:33.414Z,57.30
2019-04-03T17:09:01.446Z,57.40
2019-04-03T17:11:30.225Z,56.60
2019-04-03T17:13:58.517Z,56.20
2019-04-03T17:16:26.563Z,55.90
2019-04-03T17:18:54.627Z,55.70
2019-04-03T17:21:22.734Z,55.90
2019-04-03T17:23:51.168Z,53.00
2019-04-03T17:26:19.216Z,48.80
2019-04-03T17:28:47.314Z,50.20
2019-04-03T17:31:15.530Z,48.20
2019-04-03T17:33:43.746Z,50.20
2019-04-03T17:36:11.854Z,48.40
2019-04-03T17:38:40.295Z,48.10
2019-04-03T17:41:08.468Z,48.70
2019-04-03T17:43:36.540Z,52.30
2019-04-03T17:46:04.699Z,52.10
2019-04-03T17:48:32.766Z,52.30
2019-04-03T17:51:02.649Z,59.50
2019-04-03T17:53:30.613Z,58.40
2019-04-03T17:55:58.723Z,57.60
2019-04-03T17:58:27.042Z,57.20
2019-04-03T18:00:55.192Z,56.30
2019-04-03T18:03:23.260Z,55.10
2019-04-03T18:05:51.372Z,54.20
2019-04-03T18:08:19.522Z,55.00
2019-04-03T18:10:47.667Z,54.90
2019-04-03T18:13:15.870Z,54.40
2019-04-03T18:15:43.922Z,54.40
2019-04-03T18:18:12.003Z,54.50
2019-04-03T18:20:40.122Z,54.60
2019-04-03T18:23:10.579Z,56.50
2019-04-03T18:25:38.052Z,53.20
2019-04-03T18:28:06.175Z,53.10
2019-04-03T18:30:34.198Z,52.00
2019-04-03T18:33:02.273Z,54.70
2019-04-03T18:35:30.361Z,54.60
2019-04-03T18:37:58.399Z,54.10
2019-04-03T18:40:26.444Z,54.80
2019-04-03T18:42:54.512Z,53.80
2019-04-03T18:45:25.422Z,54.10
2019-04-03T18:47:52.486Z,55.30
2019-04-03T18:50:21.278Z,53.30
2019-04-03T18:52:49.503Z,51.30
2019-04-03T18:55:17.578Z,51.80
2019-04-03T18:57:45.706Z,51.10
2019-04-03T19:00:13.771Z,53.50
2019-04-03T19:02:41.804Z,52.20
2019-04-03T19:05:13.762Z,52.90
2019-04-03T19:07:39.884Z,51.40
2019-04-03T19:10:08.101Z,52.90
2019-04-03T19:12:36.344Z,52.00
2019-04-03T19:15:04.546Z,53.10
2019-04-03T19:17:32.589Z,52.60
2019-04-03T19:20:10.296Z,52.50
2019-04-03T19:22:30.396Z,55.80
2019-04-03T19:24:59.268Z,54.70
2019-04-03T19:27:27.463Z,54.80
2019-04-03T19:29:55.479Z,54.80
2019-04-03T19:32:23.559Z,55.00
2019-04-03T19:34:52.400Z,55.10
2019-04-03T19:37:21.274Z,55.20
2019-04-03T19:39:49.309Z,55.30
2019-04-03T19:42:17.512Z,55.20
2019-04-03T19:44:47.091Z,55.50
2019-04-03T19:47:15.398Z,55.70
2019-04-03T19:49:43.677Z,55.70
2019-04-03T19:52:11.680Z,55.70
2019-04-03T19:54:39.719Z,55.70
2019-04-03T19:57:07.802Z,56.30
2019-04-03T19:59:35.824Z,56.00
2019-04-03T20:02:03.878Z,56.00
2019-04-03T20:04:31.997Z,56.20
2019-04-03T20:07:00.096Z,56.10
2019-04-03T20:09:28.238Z,56.20
2019-04-03T20:11:56.258Z,56.00
2019-04-03T20:14:24.359Z,56.10
2019-04-03T20:16:52.801Z,55.90
2019-04-03T20:19:22.521Z,56.20
2019-04-03T20:21:50.545Z,56.10
2019-04-03T20:24:18.662Z,56.20
2019-04-03T20:26:47.088Z,56.50
2019-04-03T20:29:15.128Z,56.20
2019-04-03T20:31:43.390Z,56.20
2019-04-03T20:34:13.070Z,56.10
2019-04-03T20:36:41.507Z,55.50
2019-04-03T20:39:09.550Z,55.40
2019-04-03T20:41:37.631Z,55.50
2019-04-03T20:44:05.680Z,55.30
2019-04-03T20:46:33.860Z,55.30
2019-04-03T20:49:03.092Z,55.20
2019-04-03T20:51:31.521Z,55.10
2019-04-03T20:53:59.626Z,55.20
2019-04-03T20:56:29.043Z,55.30
2019-04-03T20:58:57.708Z,55.30
2019-04-03T21:01:25.844Z,55.30
2019-04-03T21:03:54.064Z,55.20
2019-04-03T21:06:22.231Z,55.30
2019-04-03T21:08:51.243Z,55.50
2019-04-03T21:11:19.342Z,55.10
2019-04-03T21:13:51.804Z,55.20
2019-04-03T21:16:32.791Z,54.90
2019-04-03T21:18:52.873Z,54.60
2019-04-03T21:21:20.931Z,54.60
2019-04-03T21:23:49.020Z,54.60
2019-04-03T21:26:17.160Z,54.60
2019-04-03T21:28:45.421Z,54.40
2019-04-03T21:31:13.477Z,54.30
2019-04-03T21:33:41.556Z,54.30
2019-04-03T21:36:09.634Z,54.30
2019-04-03T21:38:41.743Z,55.50
2019-04-03T21:41:10.589Z,55.60
2019-04-03T21:43:38.762Z,55.40
2019-04-03T21:46:06.983Z,55.40
2019-04-03T21:48:36.767Z,55.50
2019-04-03T21:51:04.848Z,55.50
2019-04-03T21:53:32.913Z,55.50
2019-04-03T21:56:02.620Z,55.50
2019-04-03T21:58:30.910Z,55.10
2019-04-03T22:00:59.197Z,55.20
2019-04-03T22:03:27.315Z,55.10
2019-04-03T22:05:56.139Z,55.10
2019-04-03T22:08:24.848Z,55.00
2019-04-03T22:10:53.213Z,55.10
2019-04-03T22:13:21.237Z,55.10
2019-04-03T22:15:49.272Z,55.10
2019-04-03T22:18:17.807Z,55.10
2019-04-03T22:20:45.884Z,55.10
2019-04-03T22:23:14.104Z,55.20
2019-04-03T22:25:43.503Z,55.10
2019-04-03T22:28:13.217Z,55.00
2019-04-03T22:30:41.583Z,54.90
2019-04-03T22:33:09.729Z,55.00
2019-04-03T22:35:37.799Z,55.00
2019-04-03T22:38:06.153Z,54.80
2019-04-03T22:40:34.434Z,54.90
2019-04-03T22:43:02.670Z,54.90
2019-04-03T22:45:30.795Z,54.90
2019-04-03T22:47:58.997Z,54.80
2019-04-03T22:50:27.105Z,54.90
2019-04-03T22:52:55.147Z,54.80
2019-04-03T22:55:23.199Z,54.90
2019-04-03T22:57:51.308Z,54.80
2019-04-03T23:00:19.586Z,54.80
2019-04-03T23:02:51.505Z,54.90
2019-04-03T23:05:19.611Z,54.70
2019-04-03T23:07:47.676Z,54.70
2019-04-03T23:10:15.720Z,54.70
2019-04-03T23:12:43.824Z,54.70
2019-04-03T23:15:12.194Z,54.60
2019-04-03T23:17:40.355Z,54.50
2019-04-03T23:20:08.427Z,54.70
2019-04-03T23:22:36.548Z,54.50
2019-04-03T23:25:04.658Z,54.50
2019-04-03T23:27:33.480Z,54.50
2019-04-03T23:30:01.568Z,54.50
2019-04-03T23:32:29.653Z,54.40
2019-04-03T23:34:57.694Z,54.40
2019-04-03T23:37:25.717Z,54.40
2019-04-03T23:39:53.805Z,54.40
2019-04-03T23:42:21.824Z,54.40
2019-04-03T23:44:49.945Z,54.40
2019-04-03T23:47:18.252Z,54.30
2019-04-03T23:49:46.279Z,54.40
2019-04-03T23:52:14.321Z,54.40
2019-04-03T23:54:42.384Z,54.40
2019-04-03T23:57:10.429Z,54.30
2019-04-03T23:59:38.483Z,54.50
